createdAt,value
2023-05-20T00:00:54.436Z,963.80
2023-05-20T00:01:54.470Z,963.82
2023-05-20T00:02:54.529Z,963.83
2023-05-20T00:03:54.557Z,963.83
2023-05-20T00:04:54.457Z,963.83
2023-05-20T00:05:54.424Z,963.83
2023-05-20T00:06:54.412Z,963.83
2023-05-20T00:07:54.373Z,963.82
2023-05-20T00:08:54.367Z,963.80
2023-05-20T00:09:54.361Z,963.81
2023-05-20T00:10:54.349Z,963.81
2023-05-20T00:11:54.351Z,963.79
2023-05-20T00:12:54.334Z,963.78
2023-05-20T00:13:54.318Z,963.77
2023-05-20T00:14:55.899Z,963.76
2023-05-20T00:15:54.335Z,963.75
2023-05-20T00:16:54.295Z,963.75
2023-05-20T00:17:54.309Z,963.76
2023-05-20T00:18:54.294Z,963.77
2023-05-20T00:19:54.274Z,963.75
2023-05-20T00:20:54.261Z,963.74
2023-05-20T00:21:54.243Z,963.72
2023-05-20T00:22:54.243Z,963.72
2023-05-20T00:23:54.208Z,963.73
2023-05-20T00:24:54.213Z,963.73
2023-05-20T00:25:54.226Z,963.71
2023-05-20T00:26:54.182Z,963.70
2023-05-20T00:27:54.151Z,963.67
2023-05-20T00:28:54.175Z,963.67
2023-05-20T00:29:54.148Z,963.67
2023-05-20T00:30:54.122Z,963.67
2023-05-20T00:31:54.132Z,963.68
2023-05-20T00:32:54.186Z,963.69
2023-05-20T00:33:54.153Z,963.68
2023-05-20T00:34:54.107Z,963.67
2023-05-20T00:35:54.084Z,963.68
2023-05-20T00:36:54.111Z,963.66
2023-05-20T00:37:54.047Z,963.67
2023-05-20T00:38:54.055Z,963.68
2023-05-20T00:39:54.017Z,963.68
2023-05-20T00:40:54.025Z,963.66
2023-05-20T00:41:54.084Z,963.66
2023-05-20T00:42:54.025Z,963.67
2023-05-20T00:43:54.027Z,963.66
2023-05-20T00:44:54.007Z,963.67
2023-05-20T00:45:53.998Z,963.69
2023-05-20T00:46:53.990Z,963.69
2023-05-20T00:47:53.989Z,963.69
2023-05-20T00:48:54.067Z,963.70
2023-05-20T00:49:53.939Z,963.70
2023-05-20T00:50:53.923Z,963.69
2023-05-20T00:51:54.782Z,963.70
2023-05-20T00:52:53.917Z,963.70
2023-05-20T00:53:53.920Z,963.69
2023-05-20T00:54:53.892Z,963.67
2023-05-20T00:55:53.873Z,963.65
2023-05-20T00:56:53.918Z,963.65
2023-05-20T00:57:53.876Z,963.64
2023-05-20T00:58:53.929Z,963.63
2023-05-20T00:59:53.873Z,963.63
2023-05-20T01:00:53.809Z,963.62
2023-05-20T01:01:53.854Z,963.62
2023-05-20T01:02:53.852Z,963.61
2023-05-20T01:03:53.836Z,963.61
2023-05-20T01:04:53.784Z,963.60
2023-05-20T01:05:53.777Z,963.59
2023-05-20T01:06:53.944Z,963.59
2023-05-20T01:07:53.771Z,963.58
2023-05-20T01:08:53.770Z,963.57
2023-05-20T01:09:53.723Z,963.56
2023-05-20T01:10:53.728Z,963.55
2023-05-20T01:11:53.788Z,963.55
2023-05-20T01:12:53.671Z,963.54
2023-05-20T01:13:53.674Z,963.53
2023-05-20T01:14:53.676Z,963.52
2023-05-20T01:15:53.689Z,963.51
2023-05-20T01:16:53.748Z,963.52
2023-05-20T01:17:53.659Z,963.49
2023-05-20T01:18:53.611Z,963.50
2023-05-20T01:19:53.618Z,963.49
2023-05-20T01:20:53.665Z,963.48
2023-05-20T01:21:53.609Z,963.48
2023-05-20T01:22:53.618Z,963.48
2023-05-20T01:23:53.560Z,963.47
2023-05-20T01:24:53.635Z,963.46
2023-05-20T01:25:53.556Z,963.45
2023-05-20T01:26:53.569Z,963.44
2023-05-20T01:27:53.580Z,963.44
2023-05-20T01:28:53.509Z,963.43
2023-05-20T01:29:53.558Z,963.44
2023-05-20T01:30:53.562Z,963.45
2023-05-20T01:31:53.536Z,963.45
2023-05-20T01:32:53.488Z,963.45
2023-05-20T01:33:53.452Z,963.44
2023-05-20T01:34:53.492Z,963.43
2023-05-20T01:35:53.457Z,963.42
2023-05-20T01:36:53.450Z,963.40
2023-05-20T01:37:53.456Z,963.39
2023-05-20T01:38:53.427Z,963.38
2023-05-20T01:39:53.471Z,963.37
2023-05-20T01:40:53.440Z,963.35
2023-05-20T01:41:53.404Z,963.35
2023-05-20T01:42:53.737Z,963.34
2023-05-20T01:43:53.425Z,963.33
2023-05-20T01:44:53.409Z,963.33
2023-05-20T01:45:53.365Z,963.33
2023-05-20T01:46:53.412Z,963.34
2023-05-20T01:47:53.338Z,963.34
2023-05-20T01:48:53.336Z,963.34
2023-05-20T01:49:53.313Z,963.35
2023-05-20T01:50:53.305Z,963.36
2023-05-20T01:51:53.283Z,963.37
2023-05-20T01:52:53.290Z,963.38
2023-05-20T01:53:53.283Z,963.39
2023-05-20T01:54:53.296Z,963.38
2023-05-20T01:55:53.233Z,963.37
2023-05-20T01:56:53.237Z,963.37
2023-05-20T01:57:53.242Z,963.34
2023-05-20T01:58:53.222Z,963.34
2023-05-20T01:59:53.200Z,963.33
2023-05-20T02:00:53.234Z,963.32
2023-05-20T02:01:53.250Z,963.31
2023-05-20T02:02:53.224Z,963.31
2023-05-20T02:03:53.189Z,963.30
2023-05-20T02:04:53.170Z,963.30
2023-05-20T02:05:53.182Z,963.28
2023-05-20T02:06:53.187Z,963.27
2023-05-20T02:07:53.131Z,963.26
2023-05-20T02:08:53.126Z,963.25
2023-05-20T02:09:53.105Z,963.24
2023-05-20T02:10:53.108Z,963.23
2023-05-20T02:11:53.198Z,963.22
2023-05-20T02:12:53.084Z,963.22
2023-05-20T02:13:53.069Z,963.22
2023-05-20T02:14:53.070Z,963.24
2023-05-20T02:15:53.041Z,963.24
2023-05-20T02:16:53.151Z,963.25
2023-05-20T02:17:53.031Z,963.26
2023-05-20T02:18:53.148Z,963.27
2023-05-20T02:19:52.999Z,963.27
2023-05-20T02:20:53.007Z,963.28
2023-05-20T02:21:52.970Z,963.27
2023-05-20T02:22:52.969Z,963.28
2023-05-20T02:23:52.959Z,963.29
2023-05-20T02:24:52.962Z,963.29
2023-05-20T02:25:52.953Z,963.29
2023-05-20T02:26:52.931Z,963.27
2023-05-20T02:27:52.937Z,963.26
2023-05-20T02:28:52.913Z,963.26
2023-05-20T02:29:52.920Z,963.26
2023-05-20T02:30:52.940Z,963.26
2023-05-20T02:31:52.886Z,963.25
2023-05-20T02:32:52.955Z,963.26
2023-05-20T02:33:52.907Z,963.27
2023-05-20T02:34:52.861Z,963.29
2023-05-20T02:35:52.911Z,963.30
2023-05-20T02:36:52.871Z,963.30
2023-05-20T02:37:52.821Z,963.30
2023-05-20T02:38:52.827Z,963.29
2023-05-20T02:39:52.811Z,963.29
2023-05-20T02:40:52.819Z,963.29
2023-05-20T02:41:52.777Z,963.28
2023-05-20T02:42:52.781Z,963.29
2023-05-20T02:43:52.787Z,963.27
2023-05-20T02:44:52.746Z,963.26
2023-05-20T02:45:52.760Z,963.28
2023-05-20T02:46:52.740Z,963.26
2023-05-20T02:47:52.764Z,963.26
2023-05-20T02:48:52.727Z,963.25
2023-05-20T02:49:52.732Z,963.25
2023-05-20T02:50:52.686Z,963.26
2023-05-20T02:51:52.663Z,963.27
2023-05-20T02:52:52.706Z,963.27
2023-05-20T02:53:52.668Z,963.28
2023-05-20T02:54:52.662Z,963.28
2023-05-20T02:55:52.627Z,963.28
2023-05-20T02:56:52.612Z,963.28
2023-05-20T02:57:52.642Z,963.27
2023-05-20T02:58:52.588Z,963.28
2023-05-20T02:59:52.645Z,963.30
2023-05-20T03:00:52.572Z,963.31
2023-05-20T03:01:52.722Z,963.32
2023-05-20T03:02:52.578Z,963.31
2023-05-20T03:03:52.523Z,963.34
2023-05-20T03:04:52.530Z,963.33
2023-05-20T03:05:52.481Z,963.32
2023-05-20T03:06:52.553Z,963.31
2023-05-20T03:07:52.461Z,963.30
2023-05-20T03:08:52.458Z,963.29
2023-05-20T03:09:52.430Z,963.28
2023-05-20T03:10:52.437Z,963.27
2023-05-20T03:11:52.415Z,963.26
2023-05-20T03:12:52.422Z,963.25
2023-05-20T03:13:52.428Z,963.27
2023-05-20T03:14:52.377Z,963.27
2023-05-20T03:15:52.419Z,963.27
2023-05-20T03:16:52.372Z,963.29
2023-05-20T03:17:52.410Z,963.29
2023-05-20T03:18:52.384Z,963.29
2023-05-20T03:19:52.365Z,963.27
2023-05-20T03:20:52.332Z,963.26
2023-05-20T03:21:52.324Z,963.26
2023-05-20T03:22:52.293Z,963.25
2023-05-20T03:23:52.312Z,963.24
2023-05-20T03:24:52.292Z,963.24
2023-05-20T03:25:52.289Z,963.24
2023-05-20T03:26:52.251Z,963.23
2023-05-20T03:27:52.254Z,963.21
2023-05-20T03:28:52.238Z,963.20
2023-05-20T03:29:52.239Z,963.18
2023-05-20T03:30:52.243Z,963.18
2023-05-20T03:31:52.303Z,963.17
2023-05-20T03:32:52.257Z,963.17
2023-05-20T03:33:52.198Z,963.19
2023-05-20T03:34:52.200Z,963.21
2023-05-20T03:35:52.170Z,963.25
2023-05-20T03:36:52.150Z,963.26
2023-05-20T03:37:52.216Z,963.29
2023-05-20T03:38:52.155Z,963.30
2023-05-20T03:39:52.171Z,963.30
2023-05-20T03:40:52.107Z,963.28
2023-05-20T03:41:52.155Z,963.28
2023-05-20T03:42:52.259Z,963.26
2023-05-20T03:43:52.084Z,963.25
2023-05-20T03:44:52.081Z,963.25
2023-05-20T03:45:52.076Z,963.25
2023-05-20T03:46:52.091Z,963.26
2023-05-20T03:47:52.133Z,963.27
2023-05-20T03:48:52.044Z,963.28
2023-05-20T03:49:52.016Z,963.30
2023-05-20T03:50:52.017Z,963.31
2023-05-20T03:51:51.999Z,963.33
2023-05-20T03:52:52.011Z,963.34
2023-05-20T03:53:52.000Z,963.35
2023-05-20T03:54:51.959Z,963.36
2023-05-20T03:55:51.964Z,963.36
2023-05-20T03:56:51.990Z,963.36
2023-05-20T03:57:51.956Z,963.35
2023-05-20T03:58:51.951Z,963.33
2023-05-20T03:59:57.944Z,963.32
2023-05-20T04:00:51.901Z,963.30
2023-05-20T04:01:51.934Z,963.30
2023-05-20T04:02:51.961Z,963.29
2023-05-20T04:03:51.956Z,963.30
2023-05-20T04:04:51.876Z,963.29
2023-05-20T04:05:51.877Z,963.27
2023-05-20T04:06:51.832Z,963.29
2023-05-20T04:07:51.848Z,963.29
2023-05-20T04:08:51.826Z,963.26
2023-05-20T04:09:51.830Z,963.27
2023-05-20T04:10:51.811Z,963.24
2023-05-20T04:11:51.792Z,963.25
2023-05-20T04:12:51.768Z,963.23
2023-05-20T04:13:51.782Z,963.22
2023-05-20T04:14:51.751Z,963.24
2023-05-20T04:15:51.758Z,963.24
2023-05-20T04:16:51.833Z,963.26
2023-05-20T04:17:51.750Z,963.27
2023-05-20T04:18:51.723Z,963.27
2023-05-20T04:19:51.704Z,963.27
2023-05-20T04:20:51.703Z,963.27
2023-05-20T04:21:51.711Z,963.25
2023-05-20T04:22:51.693Z,963.25
2023-05-20T04:23:51.682Z,963.23
2023-05-20T04:24:51.662Z,963.20
2023-05-20T04:25:51.684Z,963.21
2023-05-20T04:26:51.633Z,963.23
2023-05-20T04:27:51.619Z,963.22
2023-05-20T04:28:51.618Z,963.20
2023-05-20T04:29:51.590Z,963.20
2023-05-20T04:30:51.613Z,963.19
2023-05-20T04:31:51.660Z,963.18
2023-05-20T04:32:51.576Z,963.18
2023-05-20T04:33:51.557Z,963.15
2023-05-20T04:34:51.566Z,963.15
2023-05-20T04:35:51.594Z,963.13
2023-05-20T04:36:51.532Z,963.12
2023-05-20T04:37:51.529Z,963.12
2023-05-20T04:38:51.525Z,963.10
2023-05-20T04:39:51.520Z,963.10
2023-05-20T04:40:51.502Z,963.09
2023-05-20T04:41:51.534Z,963.12
2023-05-20T04:42:51.475Z,963.11
2023-05-20T04:43:51.446Z,963.12
2023-05-20T04:44:51.482Z,963.10
2023-05-20T04:45:51.468Z,963.09
2023-05-20T04:46:51.427Z,963.12
2023-05-20T04:47:51.505Z,963.13
2023-05-20T04:48:51.433Z,963.14
2023-05-20T04:49:51.438Z,963.14
2023-05-20T04:50:51.432Z,963.16
2023-05-20T04:51:51.387Z,963.14
2023-05-20T04:52:51.368Z,963.12
2023-05-20T04:53:51.441Z,963.11
2023-05-20T04:54:51.342Z,963.11
2023-05-20T04:55:51.339Z,963.10
2023-05-20T04:56:51.380Z,963.08
2023-05-20T04:57:51.333Z,963.05
2023-05-20T04:58:51.334Z,963.05
2023-05-20T04:59:51.332Z,963.08
2023-05-20T05:00:51.301Z,963.09
2023-05-20T05:01:51.439Z,963.15
2023-05-20T05:02:51.385Z,963.16
2023-05-20T05:03:51.294Z,963.19
2023-05-20T05:04:51.327Z,963.20
2023-05-20T05:05:51.237Z,963.22
2023-05-20T05:06:51.226Z,963.24
2023-05-20T05:07:51.238Z,963.22
2023-05-20T05:08:51.222Z,963.21
2023-05-20T05:09:51.188Z,963.20
2023-05-20T05:10:51.188Z,963.18
2023-05-20T05:11:51.172Z,963.17
2023-05-20T05:12:51.164Z,963.15
2023-05-20T05:13:51.142Z,963.13
2023-05-20T05:14:51.156Z,963.13
2023-05-20T05:15:51.159Z,963.11
2023-05-20T05:16:52.937Z,963.08
2023-05-20T05:17:51.181Z,963.04
2023-05-20T05:18:51.172Z,963.00
2023-05-20T05:19:51.144Z,962.96
2023-05-20T05:20:51.115Z,962.95
2023-05-20T05:21:51.132Z,962.92
2023-05-20T05:22:51.070Z,962.88
2023-05-20T05:23:51.055Z,962.88
2023-05-20T05:24:51.044Z,962.87
2023-05-20T05:25:51.087Z,962.89
2023-05-20T05:26:51.031Z,962.91
2023-05-20T05:27:51.021Z,962.93
2023-05-20T05:28:51.002Z,962.94
2023-05-20T05:29:50.989Z,962.96
2023-05-20T05:30:50.985Z,962.96
2023-05-20T05:31:51.028Z,962.96
2023-05-20T05:32:51.129Z,962.97
2023-05-20T05:33:50.951Z,962.96
2023-05-20T05:34:50.941Z,962.95
2023-05-20T05:35:50.954Z,962.96
2023-05-20T05:36:50.978Z,962.94
2023-05-20T05:37:50.962Z,962.91
2023-05-20T05:38:50.893Z,962.86
2023-05-20T05:39:50.896Z,962.81
2023-05-20T05:40:50.926Z,962.80
2023-05-20T05:41:50.844Z,962.77
2023-05-20T05:42:50.845Z,962.80
2023-05-20T05:43:50.882Z,962.77
2023-05-20T05:44:50.838Z,962.76
2023-05-20T05:45:50.823Z,962.80
2023-05-20T05:46:50.837Z,962.81
2023-05-20T05:47:50.846Z,962.80
2023-05-20T05:48:50.768Z,962.80
2023-05-20T05:49:50.805Z,962.82
2023-05-20T05:50:50.776Z,962.78
2023-05-20T05:51:50.756Z,962.79
2023-05-20T05:52:50.751Z,962.76
2023-05-20T05:53:50.790Z,962.76
2023-05-20T05:54:50.747Z,962.77
2023-05-20T05:55:50.710Z,962.76
2023-05-20T05:56:50.688Z,962.77
2023-05-20T05:57:50.708Z,962.77
2023-05-20T05:58:50.726Z,962.79
2023-05-20T05:59:50.703Z,962.81
2023-05-20T06:00:50.684Z,962.82
2023-05-20T06:01:50.707Z,962.83
2023-05-20T06:02:50.851Z,962.81
2023-05-20T06:03:50.688Z,962.83
2023-05-20T06:04:50.636Z,962.85
2023-05-20T06:05:50.608Z,962.84
2023-05-20T06:06:50.591Z,962.85
2023-05-20T06:07:50.606Z,962.92
2023-05-20T06:08:50.574Z,962.82
2023-05-20T06:09:50.607Z,962.80
2023-05-20T06:10:50.550Z,962.79
2023-05-20T06:11:50.551Z,962.81
2023-05-20T06:12:50.542Z,962.81
2023-05-20T06:13:50.543Z,962.85
2023-05-20T06:14:50.526Z,962.83
2023-05-20T06:15:50.537Z,962.81
2023-05-20T06:16:50.507Z,962.81
2023-05-20T06:17:50.589Z,962.78
2023-05-20T06:18:50.602Z,962.77
2023-05-20T06:19:50.467Z,962.77
2023-05-20T06:20:50.463Z,962.78
2023-05-20T06:21:50.461Z,962.78
2023-05-20T06:22:50.469Z,962.79
2023-05-20T06:23:50.452Z,962.80
2023-05-20T06:24:50.410Z,962.78
2023-05-20T06:25:50.420Z,962.76
2023-05-20T06:26:50.401Z,962.81
2023-05-20T06:27:50.403Z,962.83
2023-05-20T06:28:50.396Z,962.80
2023-05-20T06:29:50.373Z,962.78
2023-05-20T06:30:50.370Z,962.77
2023-05-20T06:31:50.346Z,962.75
2023-05-20T06:32:50.370Z,962.76
2023-05-20T06:33:50.326Z,962.71
2023-05-20T06:34:50.293Z,962.70
2023-05-20T06:35:50.331Z,962.68
2023-05-20T06:36:50.274Z,962.69
2023-05-20T06:37:50.354Z,962.68
2023-05-20T06:38:50.261Z,962.68
2023-05-20T06:39:50.260Z,962.67
2023-05-20T06:40:50.256Z,962.65
2023-05-20T06:41:50.225Z,962.62
2023-05-20T06:42:50.233Z,962.63
2023-05-20T06:43:52.454Z,962.62
2023-05-20T06:44:50.252Z,962.62
2023-05-20T06:45:50.244Z,962.61
2023-05-20T06:46:50.269Z,962.64
2023-05-20T06:47:50.248Z,962.63
2023-05-20T06:48:50.170Z,962.63
2023-05-20T06:49:50.186Z,962.61
2023-05-20T06:50:50.165Z,962.58
2023-05-20T06:51:50.148Z,962.58
2023-05-20T06:52:50.174Z,962.58
2023-05-20T06:53:50.196Z,962.58
2023-05-20T06:54:50.116Z,962.56
2023-05-20T06:55:50.113Z,962.63
2023-05-20T06:56:50.089Z,962.67
2023-05-20T06:57:50.104Z,962.55
2023-05-20T06:58:50.103Z,962.53
2023-05-20T06:59:50.059Z,962.51
2023-05-20T07:00:50.043Z,962.45
2023-05-20T07:01:50.082Z,962.48
2023-05-20T07:02:50.079Z,962.46
2023-05-20T07:03:50.124Z,962.49
2023-05-20T07:04:49.986Z,962.49
2023-05-20T07:05:50.036Z,962.49
2023-05-20T07:06:49.978Z,962.46
2023-05-20T07:07:49.963Z,962.48
2023-05-20T07:08:49.974Z,962.47
2023-05-20T07:09:49.945Z,962.45
2023-05-20T07:10:49.968Z,962.46
2023-05-20T07:11:49.933Z,962.42
2023-05-20T07:12:49.934Z,962.38
2023-05-20T07:13:49.930Z,962.48
2023-05-20T07:14:49.905Z,962.35
2023-05-20T07:15:49.899Z,962.35
2023-05-20T07:16:49.882Z,962.32
2023-05-20T07:17:49.956Z,962.32
2023-05-20T07:18:49.903Z,962.33
2023-05-20T07:19:49.853Z,962.34
2023-05-20T07:20:49.831Z,962.40
2023-05-20T07:21:49.887Z,962.38
2023-05-20T07:22:49.851Z,962.35
2023-05-20T07:23:49.816Z,962.33
2023-05-20T07:24:49.821Z,962.31
2023-05-20T07:25:49.809Z,962.34
2023-05-20T07:26:49.838Z,962.32
2023-05-20T07:27:49.802Z,962.31
2023-05-20T07:28:49.812Z,962.32
2023-05-20T07:29:49.770Z,962.32
2023-05-20T07:30:49.782Z,962.33
2023-05-20T07:31:49.780Z,962.36
2023-05-20T07:32:49.777Z,962.38
2023-05-20T07:33:49.697Z,962.41
2023-05-20T07:34:49.681Z,962.39
2023-05-20T07:35:49.681Z,962.41
2023-05-20T07:36:49.678Z,962.40
2023-05-20T07:37:49.660Z,962.36
2023-05-20T07:39:00.574Z,962.38
2023-05-20T07:39:49.639Z,962.33
2023-05-20T07:40:49.648Z,962.32
2023-05-20T07:41:49.658Z,962.28
2023-05-20T07:42:49.612Z,962.23
2023-05-20T07:43:49.604Z,962.17
2023-05-20T07:44:49.590Z,962.18
2023-05-20T07:45:49.633Z,962.19
2023-05-20T07:46:49.665Z,962.13
2023-05-20T07:47:49.613Z,962.15
2023-05-20T07:48:49.547Z,962.16
2023-05-20T07:49:49.541Z,962.19
2023-05-20T07:50:49.589Z,962.20
2023-05-20T07:51:49.499Z,962.18
2023-05-20T07:52:56.601Z,962.16
2023-05-20T07:53:49.477Z,962.17
2023-05-20T07:54:49.576Z,962.15
2023-05-20T07:55:49.461Z,962.17
2023-05-20T07:56:49.491Z,962.12
2023-05-20T07:57:49.458Z,962.14
2023-05-20T07:58:49.437Z,962.13
2023-05-20T07:59:49.455Z,962.13
2023-05-20T08:00:49.421Z,962.14
2023-05-20T08:01:49.433Z,962.16
2023-05-20T08:02:49.569Z,962.16
2023-05-20T08:03:49.516Z,962.16
2023-05-20T08:04:49.383Z,962.10
2023-05-20T08:05:49.390Z,962.07
2023-05-20T08:06:49.374Z,962.07
2023-05-20T08:07:49.378Z,962.07
2023-05-20T08:08:49.358Z,962.04
2023-05-20T08:09:49.354Z,962.04
2023-05-20T08:10:49.314Z,962.04
2023-05-20T08:11:49.418Z,962.03
2023-05-20T08:12:49.313Z,962.06
2023-05-20T08:13:49.324Z,962.11
2023-05-20T08:14:49.275Z,962.13
2023-05-20T08:15:49.267Z,962.20
2023-05-20T08:16:49.855Z,962.25
2023-05-20T08:17:49.299Z,962.27
2023-05-20T08:18:49.294Z,962.29
2023-05-20T08:19:49.244Z,962.32
2023-05-20T08:20:49.216Z,962.35
2023-05-20T08:21:49.207Z,962.37
2023-05-20T08:22:49.199Z,962.37
2023-05-20T08:23:49.176Z,962.33
2023-05-20T08:24:49.190Z,962.33
2023-05-20T08:25:49.152Z,962.35
2023-05-20T08:26:49.171Z,962.37
2023-05-20T08:27:49.221Z,962.36
2023-05-20T08:28:49.134Z,962.38
2023-05-20T08:29:49.116Z,962.35
2023-05-20T08:30:49.155Z,962.36
2023-05-20T08:31:49.138Z,962.38
2023-05-20T08:32:49.130Z,962.42
2023-05-20T08:33:49.088Z,962.40
2023-05-20T08:34:49.079Z,962.42
2023-05-20T08:35:49.060Z,962.38
2023-05-20T08:36:49.089Z,962.44
2023-05-20T08:37:49.101Z,962.44
2023-05-20T08:38:49.020Z,962.41
2023-05-20T08:39:49.014Z,962.39
2023-05-20T08:40:49.038Z,962.38
2023-05-20T08:41:49.024Z,962.40
2023-05-20T08:42:48.990Z,962.34
2023-05-20T08:43:48.978Z,962.37
2023-05-20T08:44:48.953Z,962.38
2023-05-20T08:45:48.974Z,962.38
2023-05-20T08:46:49.015Z,962.37
2023-05-20T08:47:48.993Z,962.36
2023-05-20T08:48:48.925Z,962.34
2023-05-20T08:49:48.922Z,962.34
2023-05-20T08:50:48.926Z,962.32
2023-05-20T08:51:48.903Z,962.32
2023-05-20T08:52:48.905Z,962.31
2023-05-20T08:53:48.891Z,962.29
2023-05-20T08:54:48.877Z,962.25
2023-05-20T08:55:48.860Z,962.24
2023-05-20T08:56:48.836Z,962.24
2023-05-20T08:57:48.896Z,962.23
2023-05-20T08:58:48.811Z,962.19
2023-05-20T08:59:48.816Z,962.16
2023-05-20T09:00:48.787Z,962.14
2023-05-20T09:01:48.787Z,962.15
2023-05-20T09:02:48.839Z,962.14
2023-05-20T09:03:48.752Z,962.18
2023-05-20T09:04:48.903Z,962.20
2023-05-20T09:05:48.724Z,962.14
2023-05-20T09:06:48.761Z,962.19
2023-05-20T09:07:48.740Z,962.15
2023-05-20T09:08:48.774Z,962.14
2023-05-20T09:09:48.777Z,962.08
2023-05-20T09:10:48.724Z,962.09
2023-05-20T09:11:48.688Z,962.15
2023-05-20T09:12:48.740Z,962.09
2023-05-20T09:13:48.694Z,962.11
2023-05-20T09:14:48.669Z,962.14
2023-05-20T09:15:48.693Z,962.06
2023-05-20T09:16:48.698Z,962.03
2023-05-20T09:17:49.507Z,962.04
2023-05-20T09:18:48.699Z,962.03
2023-05-20T09:19:48.599Z,962.03
2023-05-20T09:20:48.601Z,962.04
2023-05-20T09:21:48.617Z,962.08
2023-05-20T09:22:48.603Z,962.09
2023-05-20T09:23:48.575Z,962.11
2023-05-20T09:24:48.542Z,962.15
2023-05-20T09:25:48.566Z,962.12
2023-05-20T09:26:48.547Z,962.16
2023-05-20T09:27:48.530Z,962.16
2023-05-20T09:28:48.518Z,962.19
2023-05-20T09:29:48.502Z,962.14
2023-05-20T09:30:48.470Z,962.15
2023-05-20T09:31:48.524Z,962.13
2023-05-20T09:32:48.555Z,962.12
2023-05-20T09:33:48.454Z,962.13
2023-05-20T09:34:48.438Z,962.09
2023-05-20T09:35:48.428Z,962.07
2023-05-20T09:36:48.440Z,962.08
2023-05-20T09:37:48.421Z,962.01
2023-05-20T09:38:48.404Z,962.04
2023-05-20T09:39:48.391Z,961.99
2023-05-20T09:40:48.402Z,962.02
2023-05-20T09:41:48.380Z,961.99
2023-05-20T09:42:48.345Z,961.99
2023-05-20T09:43:48.343Z,961.99
2023-05-20T09:44:48.342Z,961.98
2023-05-20T09:45:48.352Z,961.97
2023-05-20T09:46:48.322Z,961.99
2023-05-20T09:47:48.325Z,961.99
2023-05-20T09:48:48.301Z,961.95
2023-05-20T09:49:48.266Z,961.93
2023-05-20T09:50:48.291Z,961.98
2023-05-20T09:51:48.254Z,961.97
2023-05-20T09:52:48.239Z,961.96
2023-05-20T09:53:48.284Z,961.95
2023-05-20T09:54:48.240Z,961.94
2023-05-20T09:55:48.254Z,961.99
2023-05-20T09:56:48.228Z,961.98
2023-05-20T09:57:48.196Z,961.99
2023-05-20T09:58:48.203Z,961.96
2023-05-20T09:59:48.189Z,961.92
2023-05-20T10:00:54.196Z,961.93
2023-05-20T10:01:48.222Z,961.95
2023-05-20T10:02:48.215Z,961.89
2023-05-20T10:03:48.254Z,961.86
2023-05-20T10:04:48.156Z,961.82
2023-05-20T10:05:48.129Z,961.80
2023-05-20T10:06:48.123Z,961.88
2023-05-20T10:07:48.108Z,961.88
2023-05-20T10:08:48.107Z,961.78
2023-05-20T10:09:48.124Z,961.81
2023-05-20T10:10:48.099Z,961.80
2023-05-20T10:11:48.058Z,961.78
2023-05-20T10:12:48.043Z,961.85
2023-05-20T10:13:48.073Z,961.76
2023-05-20T10:14:48.045Z,961.71
2023-05-20T10:15:48.039Z,961.66
2023-05-20T10:16:48.017Z,961.66
2023-05-20T10:17:48.030Z,961.63
2023-05-20T10:18:48.075Z,961.68
2023-05-20T10:19:47.992Z,961.63
2023-05-20T10:20:47.989Z,961.60
2023-05-20T10:21:47.956Z,961.65
2023-05-20T10:22:47.985Z,961.70
2023-05-20T10:23:47.959Z,961.74
2023-05-20T10:24:47.947Z,961.75
2023-05-20T10:25:47.998Z,961.81
2023-05-20T10:26:47.941Z,961.78
2023-05-20T10:27:48.037Z,961.76
2023-05-20T10:28:47.908Z,961.72
2023-05-20T10:30:47.860Z,961.71
2023-05-20T10:31:47.845Z,961.72
2023-05-20T10:32:47.969Z,961.74
2023-05-20T10:33:47.955Z,961.83
2023-05-20T10:34:47.833Z,961.80
2023-05-20T10:35:47.802Z,961.79
2023-05-20T10:36:47.837Z,961.84
2023-05-20T10:37:47.841Z,961.79
2023-05-20T10:38:47.786Z,961.76
2023-05-20T10:39:47.786Z,961.73
2023-05-20T10:40:47.753Z,961.72
2023-05-20T10:41:47.760Z,961.70
2023-05-20T10:42:47.768Z,961.69
2023-05-20T10:43:47.745Z,961.72
2023-05-20T10:44:47.753Z,961.71
2023-05-20T10:45:47.722Z,961.63
2023-05-20T10:47:00.239Z,961.62
2023-05-20T10:47:47.735Z,961.62
2023-05-20T10:48:47.780Z,961.62
2023-05-20T10:49:47.757Z,961.71
2023-05-20T10:50:47.720Z,961.60
2023-05-20T10:51:47.655Z,961.57
2023-05-20T10:52:47.645Z,961.58
2023-05-20T10:53:47.616Z,961.54
2023-05-20T10:54:49.380Z,961.54
2023-05-20T10:55:47.625Z,961.54
2023-05-20T10:56:47.623Z,961.53
2023-05-20T10:57:47.595Z,961.49
2023-05-20T10:58:47.577Z,961.54
2023-05-20T10:59:47.608Z,961.48
2023-05-20T11:00:48.377Z,961.50
2023-05-20T11:01:47.546Z,961.44
2023-05-20T11:02:47.619Z,961.50
2023-05-20T11:03:47.649Z,961.32
2023-05-20T11:04:47.547Z,961.43
2023-05-20T11:05:47.527Z,961.35
2023-05-20T11:06:47.504Z,961.41
2023-05-20T11:07:47.517Z,961.37
2023-05-20T11:08:47.494Z,961.37
2023-05-20T11:09:47.476Z,961.32
2023-05-20T11:10:47.466Z,961.30
2023-05-20T11:11:47.451Z,961.34
2023-05-20T11:12:47.459Z,961.31
2023-05-20T11:13:47.427Z,961.32
2023-05-20T11:14:47.440Z,961.34
2023-05-20T11:15:47.405Z,961.32
2023-05-20T11:16:47.430Z,961.32
2023-05-20T11:17:47.385Z,961.33
2023-05-20T11:18:47.421Z,961.29
2023-05-20T11:19:47.384Z,961.28
2023-05-20T11:20:47.395Z,961.31
2023-05-20T11:21:47.348Z,961.28
2023-05-20T11:22:47.332Z,961.23
2023-05-20T11:23:47.352Z,961.22
2023-05-20T11:24:47.333Z,961.18
2023-05-20T11:25:47.314Z,961.18
2023-05-20T11:26:47.297Z,961.17
2023-05-20T11:27:47.277Z,961.17
2023-05-20T11:28:47.292Z,961.18
2023-05-20T11:29:47.262Z,961.18
2023-05-20T11:30:47.247Z,961.19
2023-05-20T11:31:47.281Z,961.22
2023-05-20T11:32:47.259Z,961.20
2023-05-20T11:33:47.219Z,961.21
2023-05-20T11:34:47.218Z,961.20
2023-05-20T11:35:47.233Z,961.23
2023-05-20T11:36:47.179Z,961.19
2023-05-20T11:37:47.212Z,961.14
2023-05-20T11:38:47.178Z,961.14
2023-05-20T11:39:47.204Z,961.12
2023-05-20T11:40:50.982Z,961.11
2023-05-20T11:41:47.147Z,961.13
2023-05-20T11:42:47.128Z,961.13
2023-05-20T11:43:47.126Z,961.13
2023-05-20T11:44:47.092Z,961.18
2023-05-20T11:45:47.146Z,961.18
2023-05-20T11:46:47.089Z,961.22
2023-05-20T11:47:47.093Z,961.23
2023-05-20T11:48:47.065Z,961.19
2023-05-20T11:49:47.078Z,961.16
2023-05-20T11:50:47.092Z,961.15
2023-05-20T11:51:47.057Z,961.14
2023-05-20T11:52:47.029Z,961.10
2023-05-20T11:53:47.027Z,961.08
2023-05-20T11:54:47.008Z,961.05
2023-05-20T11:55:47.011Z,961.05
2023-05-20T11:56:47.000Z,961.03
2023-05-20T11:57:46.973Z,961.00
2023-05-20T11:58:46.958Z,960.99
2023-05-20T11:59:46.998Z,961.05
2023-05-20T12:00:52.881Z,960.99
2023-05-20T12:01:46.954Z,960.98
2023-05-20T12:02:46.977Z,960.95
2023-05-20T12:03:47.181Z,960.92
2023-05-20T12:04:46.978Z,960.90
2023-05-20T12:05:46.925Z,960.87
2023-05-20T12:06:46.957Z,960.84
2023-05-20T12:07:46.869Z,960.95
2023-05-20T12:08:46.877Z,960.88
2023-05-20T12:09:46.866Z,960.92
2023-05-20T12:10:46.842Z,960.96
2023-05-20T12:11:46.847Z,960.85
2023-05-20T12:12:46.821Z,960.87
2023-05-20T12:13:46.838Z,960.83
2023-05-20T12:14:46.810Z,960.90
2023-05-20T12:15:46.835Z,960.85
2023-05-20T12:16:46.792Z,960.85
2023-05-20T12:17:46.835Z,960.81
2023-05-20T12:18:46.772Z,960.81
2023-05-20T12:19:46.819Z,960.75
2023-05-20T12:20:46.723Z,960.75
2023-05-20T12:21:46.717Z,960.73
2023-05-20T12:22:46.720Z,960.71
2023-05-20T12:23:46.714Z,960.66
2023-05-20T12:24:46.696Z,960.64
2023-05-20T12:25:46.718Z,960.67
2023-05-20T12:26:46.677Z,960.66
2023-05-20T12:27:46.668Z,960.68
2023-05-20T12:28:46.677Z,960.70
2023-05-20T12:29:46.647Z,960.71